Time,TemperatureF,DewpointF,PressureIn,WindDirection,WindDirectionDegrees,WindSpeedMPH,WindSpeedGustMPH,Humidity,HourlyPrecipIn,Conditions,Clouds,dailyrainin,SoftwareType,DateUTC
2013-07-20 00:02:00,63.0,60.0,29.88,WSW,242,6.0,-999.0,90,-99.99,,,-99.99,,2013-07-20 04:02:00,
2013-07-20 00:12:00,63.0,60.0,29.88,SW,219,4.0,-999.0,89,-99.99,,,-99.99,,2013-07-20 04:12:00,
2013-07-20 00:22:00,63.0,59.0,29.88,SW,223,5.0,-999.0,88,-99.99,,,-99.99,,2013-07-20 04:22:00,
2013-07-20 00:33:00,63.0,59.0,29.88,SW,227,8.0,-999.0,87,-99.99,,,-99.99,,2013-07-20 04:33:00,
2013-07-20 00:44:00,63.0,59.0,29.88,SW,227,8.0,-999.0,87,-99.99,,,-99.99,,2013-07-20 04:44:00,
2013-07-20 00:52:00,63.0,58.0,29.88,SW,217,8.0,-999.0,84,-99.99,,,-99.99,,2013-07-20 04:52:00,
2013-07-20 01:02:00,64.0,60.0,29.88,SSW,195,5.0,-999.0,87,-99.99,,,-99.99,,2013-07-20 05:02:00,
2013-07-20 01:12:00,64.0,60.0,29.88,SSW,195,5.0,-999.0,87,-99.99,,,-99.99,,2013-07-20 05:12:00,
2013-07-20 01:22:00,65.0,61.0,29.88,SW,225,6.0,-999.0,86,-99.99,,,-99.99,,2013-07-20 05:22:00,
2013-07-20 01:32:00,65.0,61.0,29.88,SW,225,6.0,-999.0,86,-99.99,,,-99.99,,2013-07-20 05:32:00,
2013-07-20 01:52:00,64.0,61.0,29.90,WSW,249,8.0,-999.0,89,-99.99,,,-99.99,,2013-07-20 05:52:00,
2013-07-20 02:11:00,64.0,61.0,29.90,SW,228,10.0,-999.0,89,-99.99,,,-99.99,,2013-07-20 06:11:00,
2013-07-20 02:22:00,64.0,61.0,29.90,SW,223,11.0,-999.0,90,-99.99,,,-99.99,,2013-07-20 06:22:00,
2013-07-20 02:32:00,64.0,62.0,29.90,SW,233,11.0,-999.0,92,-99.99,,,-99.99,,2013-07-20 06:32:00,
2013-07-20 02:43:00,64.0,62.0,29.90,SW,233,11.0,-999.0,92,-99.99,,,-99.99,,2013-07-20 06:43:00,
2013-07-20 02:52:00,63.0,61.0,29.90,SW,236,9.0,-999.0,93,-99.99,,,-99.99,,2013-07-20 06:52:00,
2013-07-20 03:01:00,63.0,61.0,29.90,SW,236,9.0,-999.0,93,-99.99,,,-99.99,,2013-07-20 07:01:00,
2013-07-20 03:12:00,63.0,61.0,29.89,SW,222,10.0,-999.0,92,-99.99,,,-99.99,,2013-07-20 07:12:00,
2013-07-20 03:22:00,63.0,60.0,29.89,WSW,258,9.0,-999.0,89,-99.99,,,-99.99,,2013-07-20 07:22:00,
2013-07-20 03:33:00,63.0,59.0,29.88,WSW,240,10.0,-999.0,87,-99.99,,,-99.99,,2013-07-20 07:33:00,
2013-07-20 03:44:00,63.0,59.0,29.88,WSW,240,10.0,-999.0,87,-99.99,,,-99.99,,2013-07-20 07:44:00,
2013-07-20 03:54:00,63.0,58.0,29.88,SW,232,9.0,-999.0,85,-99.99,,,-99.99,,2013-07-20 07:54:00,
2013-07-20 04:02:00,63.0,58.0,29.88,SW,232,9.0,-999.0,85,-99.99,,,-99.99,,2013-07-20 08:02:00,
2013-07-20 04:11:00,63.0,57.0,29.87,WSW,256,10.0,-999.0,81,-99.99,,,-99.99,,2013-07-20 08:11:00,
2013-07-20 04:22:00,63.0,56.0,29.87,WSW,242,10.0,-999.0,78,-99.99,,,-99.99,,2013-07-20 08:22:00,
2013-07-20 04:32:00,63.0,56.0,29.87,WSW,242,10.0,-999.0,78,-99.99,,,-99.99,,2013-07-20 08:32:00,
2013-07-20 04:44:00,63.0,56.0,29.87,SW,232,10.0,-999.0,77,-99.99,,,-99.99,,2013-07-20 08:44:00,
2013-07-20 04:52:00,62.0,54.0,29.86,SW,232,9.0,-999.0,76,-99.99,,,-99.99,,2013-07-20 08:52:00,
2013-07-20 05:02:00,62.0,54.0,29.87,WSW,246,10.0,-999.0,76,-99.99,,,-99.99,,2013-07-20 09:02:00,
2013-07-20 05:11:00,62.0,54.0,29.87,WSW,246,10.0,-999.0,76,-99.99,,,-99.99,,2013-07-20 09:11:00,
2013-07-20 05:22:00,62.0,54.0,29.87,SW,218,10.0,-999.0,75,-99.99,,,-99.99,,2013-07-20 09:22:00,
2013-07-20 05:33:00,62.0,54.0,29.87,SW,225,9.0,-999.0,75,-99.99,,,-99.99,,2013-07-20 09:33:00,
2013-07-20 05:43:00,62.0,54.0,29.87,SW,225,9.0,-999.0,75,-99.99,,,-99.99,,2013-07-20 09:43:00,
2013-07-20 05:53:00,62.0,54.0,29.88,SW,233,10.0,-999.0,74,-99.99,,,-99.99,,2013-07-20 09:53:00,
2013-07-20 06:01:00,62.0,54.0,29.88,WSW,255,10.0,-999.0,74,-99.99,,,-99.99,,2013-07-20 10:01:00,
2013-07-20 06:11:00,62.0,54.0,29.88,WSW,255,10.0,-999.0,74,-99.99,,,-99.99,,2013-07-20 10:11:00,
2013-07-20 06:22:00,62.0,54.0,29.88,SW,233,10.0,-999.0,74,-99.99,,,-99.99,,2013-07-20 10:22:00,
2013-07-20 06:32:00,62.0,53.0,29.88,WSW,242,11.0,-999.0,73,-99.99,,,-99.99,,2013-07-20 10:32:00,
2013-07-20 06:42:00,62.0,53.0,29.88,WSW,242,11.0,-999.0,73,-99.99,,,-99.99,,2013-07-20 10:42:00,
2013-07-20 06:52:00,62.0,53.0,29.88,SW,234,11.0,-999.0,73,-99.99,,,-99.99,,2013-07-20 10:52:00,
2013-07-20 07:02:00,63.0,54.0,29.88,WSW,238,12.0,-999.0,73,-99.99,,,-99.99,,2013-07-20 11:02:00,
2013-07-20 07:11:00,63.0,54.0,29.88,WSW,238,12.0,-999.0,73,-99.99,,,-99.99,,2013-07-20 11:11:00,
2013-07-20 07:32:00,63.0,54.0,29.88,WSW,241,12.0,-999.0,73,-99.99,,,-99.99,,2013-07-20 11:32:00,
2013-07-20 07:43:00,63.0,54.0,29.89,West,265,10.0,-999.0,73,-99.99,,,-99.99,,2013-07-20 11:43:00,
2013-07-20 07:52:00,63.0,54.0,29.89,WSW,245,10.0,-999.0,73,-99.99,,,-99.99,,2013-07-20 11:52:00,
2013-07-20 08:11:00,63.0,54.0,29.89,WSW,253,9.0,-999.0,73,-99.99,,,-99.99,,2013-07-20 12:11:00,
2013-07-20 08:32:00,63.0,54.0,29.90,SW,232,9.0,-999.0,73,-99.99,,,-99.99,,2013-07-20 12:32:00,
2013-07-20 08:52:00,63.0,54.0,29.90,WSW,240,9.0,-999.0,73,-99.99,,,-99.99,,2013-07-20 12:52:00,
2013-07-20 09:02:00,63.0,54.0,29.90,WSW,240,9.0,-999.0,73,-99.99,,,-99.99,,2013-07-20 13:02:00,
2013-07-20 09:11:00,63.0,54.0,29.91,SW,219,10.0,-999.0,73,-99.99,,,-99.99,,2013-07-20 13:11:00,
2013-07-20 09:22:00,63.0,54.0,29.91,West,272,10.0,-999.0,73,-99.99,,,-99.99,,2013-07-20 13:22:00,
2013-07-20 09:43:00,62.0,53.0,29.92,WSW,238,11.0,-999.0,73,-99.99,,,-99.99,,2013-07-20 13:43:00,
2013-07-20 09:53:00,62.0,53.0,29.92,West,268,10.0,-999.0,72,-99.99,,,-99.99,,2013-07-20 13:53:00,
2013-07-20 10:02:00,63.0,54.0,29.92,West,269,10.0,-999.0,72,-99.99,,,-99.99,,2013-07-20 14:02:00,
2013-07-20 10:11:00,63.0,54.0,29.92,West,269,10.0,-999.0,72,-99.99,,,-99.99,,2013-07-20 14:11:00,
2013-07-20 10:22:00,63.0,54.0,29.91,West,270,10.0,-999.0,72,-99.99,,,-99.99,,2013-07-20 14:22:00,
2013-07-20 10:32:00,63.0,54.0,29.92,West,273,9.0,-999.0,73,-99.99,,,-99.99,,2013-07-20 14:32:00,
2013-07-20 10:43:00,63.0,54.0,29.92,West,273,9.0,-999.0,73,-99.99,,,-99.99,,2013-07-20 14:43:00,
2013-07-20 10:53:00,64.0,55.0,29.91,SW,236,8.0,-999.0,73,-99.99,,,-99.99,,2013-07-20 14:53:00,
2013-07-20 11:01:00,64.0,55.0,29.92,West,271,10.0,-999.0,73,-99.99,,,-99.99,,2013-07-20 15:01:00,
2013-07-20 11:11:00,64.0,55.0,29.92,West,271,10.0,-999.0,73,-99.99,,,-99.99,,2013-07-20 15:11:00,
2013-07-20 11:23:00,64.0,55.0,29.92,WSW,257,9.0,-999.0,73,-99.99,,,-99.99,,2013-07-20 15:23:00,
2013-07-20 11:33:00,64.0,55.0,29.92,WSW,238,10.0,-999.0,73,-99.99,,,-99.99,,2013-07-20 15:33:00,
2013-07-20 11:44:00,64.0,55.0,29.92,WSW,238,10.0,-999.0,73,-99.99,,,-99.99,,2013-07-20 15:44:00,
2013-07-20 11:53:00,64.0,55.0,29.92,SW,236,10.0,-999.0,73,-99.99,,,-99.99,,2013-07-20 15:53:00,
2013-07-20 12:01:00,65.0,56.0,29.91,SSW,213,11.0,-999.0,72,-99.99,,,-99.99,,2013-07-20 16:01:00,
2013-07-20 12:11:00,65.0,56.0,29.91,SSW,213,11.0,-999.0,72,-99.99,,,-99.99,,2013-07-20 16:11:00,
2013-07-20 12:22:00,67.0,57.0,29.91,WSW,239,11.0,-999.0,71,-99.99,,,-99.99,,2013-07-20 16:22:00,
2013-07-20 12:43:00,68.0,66.0,29.91,SW,236,11.0,-999.0,93,-99.99,,,-99.99,,2013-07-20 16:43:00,
2013-07-20 12:52:00,71.0,65.0,29.90,SW,231,11.0,-999.0,82,-99.99,,,-99.99,,2013-07-20 16:52:00,
2013-07-20 13:02:00,71.0,65.0,29.90,WSW,246,11.0,-999.0,82,-99.99,,,-99.99,,2013-07-20 17:02:00,
2013-07-20 13:11:00,71.0,65.0,29.90,WSW,246,11.0,-999.0,82,-99.99,,,-99.99,,2013-07-20 17:11:00,
2013-07-20 13:22:00,74.0,67.0,29.89,SW,226,10.0,-999.0,78,-99.99,,,-99.99,,2013-07-20 17:22:00,
2013-07-20 13:32:00,74.0,66.0,29.89,WSW,243,11.0,-999.0,75,-99.99,,,-99.99,,2013-07-20 17:32:00,
2013-07-20 13:43:00,74.0,66.0,29.89,WSW,243,11.0,-999.0,75,-99.99,,,-99.99,,2013-07-20 17:43:00,
2013-07-20 13:53:00,74.0,65.0,29.88,West,262,10.0,-999.0,73,-99.99,,,-99.99,,2013-07-20 17:53:00,
2013-07-20 14:01:00,74.0,64.0,29.88,SW,217,10.0,-999.0,72,-99.99,,,-99.99,,2013-07-20 18:01:00,
2013-07-20 14:12:00,74.0,64.0,29.88,SW,217,10.0,-999.0,72,-99.99,,,-99.99,,2013-07-20 18:12:00,
2013-07-20 14:25:00,76.0,66.0,29.88,SW,234,9.0,-999.0,71,-99.99,,,-99.99,,2013-07-20 18:25:00,
2013-07-20 14:36:00,76.0,64.0,29.88,WSW,238,9.0,-999.0,67,-99.99,,,-99.99,,2013-07-20 18:36:00,
2013-07-20 14:47:00,76.0,64.0,29.88,WSW,238,9.0,-999.0,67,-99.99,,,-99.99,,2013-07-20 18:47:00,
2013-07-20 14:59:00,76.0,63.0,29.88,SW,230,10.0,-999.0,65,-99.99,,,-99.99,,2013-07-20 18:59:00,
2013-07-20 15:06:00,77.0,64.0,29.87,WSW,237,10.0,-999.0,64,-99.99,,,-99.99,,2013-07-20 19:06:00,
2013-07-20 15:16:00,77.0,64.0,29.87,WSW,237,10.0,-999.0,64,-99.99,,,-99.99,,2013-07-20 19:16:00,
2013-07-20 15:26:00,74.0,63.0,29.88,North,349,8.0,-999.0,69,-99.99,,,-99.99,,2013-07-20 19:26:00,
2013-07-20 15:44:00,70.0,64.0,29.88,NW,319,6.0,-999.0,80,-99.99,,,-99.99,,2013-07-20 19:44:00,
2013-07-20 16:06:00,72.0,64.0,29.87,NW,308,6.0,-999.0,77,-99.99,,,-99.99,,2013-07-20 20:06:00,
2013-07-20 16:16:00,72.0,64.0,29.87,NW,308,6.0,-999.0,77,-99.99,,,-99.99,,2013-07-20 20:16:00,
2013-07-20 16:24:00,68.0,63.0,29.86,SW,232,6.0,-999.0,84,-99.99,,,-99.99,,2013-07-20 20:24:00,
2013-07-20 16:34:00,67.0,63.0,29.85,WSW,249,6.0,-999.0,88,-99.99,,,-99.99,,2013-07-20 20:34:00,
2013-07-20 16:46:00,67.0,63.0,29.85,WSW,249,6.0,-999.0,88,-99.99,,,-99.99,,2013-07-20 20:46:00,
2013-07-20 16:58:00,70.0,65.0,29.85,SW,223,7.0,-999.0,85,-99.99,,,-99.99,,2013-07-20 20:58:00,
2013-07-20 17:15:00,72.0,66.0,29.85,SW,225,8.0,-999.0,82,-99.99,,,-99.99,,2013-07-20 21:15:00,
2013-07-20 17:28:00,73.0,66.0,29.84,WNW,283,9.0,-999.0,79,-99.99,,,-99.99,,2013-07-20 21:28:00,
2013-07-20 17:35:00,72.0,65.0,29.84,WSW,250,9.0,-999.0,80,-99.99,,,-99.99,,2013-07-20 21:35:00,
2013-07-20 17:46:00,72.0,65.0,29.84,WSW,250,9.0,-999.0,80,-99.99,,,-99.99,,2013-07-20 21:46:00,
2013-07-20 17:57:00,72.0,65.0,29.83,WSW,255,8.0,-999.0,80,-99.99,,,-99.99,,2013-07-20 21:57:00,
2013-07-20 18:27:00,67.0,64.0,29.83,WSW,250,10.0,-999.0,90,-99.99,,,-99.99,,2013-07-20 22:27:00,
2013-07-20 18:35:00,66.0,64.0,29.83,SW,227,9.0,-999.0,92,-99.99,,,-99.99,,2013-07-20 22:35:00,
2013-07-20 18:48:00,66.0,64.0,29.83,SW,227,9.0,-999.0,92,-99.99,,,-99.99,,2013-07-20 22:48:00,
2013-07-20 18:57:00,63.0,60.0,29.85,West,277,8.0,-999.0,90,-99.99,,,-99.99,,2013-07-20 22:57:00,
2013-07-20 19:06:00,62.0,59.0,29.85,West,277,4.0,-999.0,91,-99.99,,,-99.99,,2013-07-20 23:06:00,
2013-07-20 19:17:00,62.0,59.0,29.85,West,277,4.0,-999.0,91,-99.99,,,-99.99,,2013-07-20 23:17:00,
2013-07-20 19:29:00,63.0,61.0,29.85,WSW,241,8.0,-999.0,93,-99.99,,,-99.99,,2013-07-20 23:29:00,
2013-07-20 19:45:00,64.0,61.0,29.84,WNW,283,8.0,-999.0,90,-99.99,,,-99.99,,2013-07-20 23:45:00,
2013-07-20 20:08:00,64.0,61.0,29.85,SW,234,8.0,-999.0,90,-99.99,,,-99.99,,2013-07-21 00:08:00,
2013-07-20 20:18:00,64.0,61.0,29.85,SW,234,8.0,-999.0,90,-99.99,,,-99.99,,2013-07-21 00:18:00,
2013-07-20 20:24:00,63.0,60.0,29.86,SW,236,6.0,-999.0,91,-99.99,,,-99.99,,2013-07-21 00:24:00,
2013-07-20 20:45:00,63.0,60.0,29.86,SW,232,8.0,-999.0,90,-99.99,,,-99.99,,2013-07-21 00:45:00,
2013-07-20 20:56:00,63.0,59.0,29.87,SW,236,7.0,-999.0,88,-99.99,,,-99.99,,2013-07-21 00:56:00,
2013-07-20 21:06:00,64.0,58.0,29.86,WSW,237,8.0,-999.0,82,-99.99,,,-99.99,,2013-07-21 01:06:00,
2013-07-20 21:13:00,64.0,58.0,29.86,WSW,237,8.0,-999.0,82,-99.99,,,-99.99,,2013-07-21 01:13:00,
2013-07-20 21:29:00,64.0,58.0,29.87,SW,234,7.0,-999.0,82,-99.99,,,-99.99,,2013-07-21 01:29:00,
2013-07-20 21:36:00,63.0,59.0,29.87,West,261,5.0,-999.0,86,-99.99,,,-99.99,,2013-07-21 01:36:00,
2013-07-20 22:19:00,64.0,57.0,29.88,SW,225,5.0,-999.0,78,-99.99,,,-99.99,,2013-07-21 02:19:00,
2013-07-20 22:28:00,64.0,58.0,29.88,SW,236,5.0,-999.0,81,-99.99,,,-99.99,,2013-07-21 02:28:00,
2013-07-20 22:36:00,63.0,58.0,29.88,SW,236,5.0,-999.0,84,-99.99,,,-99.99,,2013-07-21 02:36:00,
2013-07-20 22:44:00,63.0,58.0,29.88,SW,236,5.0,-999.0,84,-99.99,,,-99.99,,2013-07-21 02:44:00,
2013-07-20 22:58:00,63.0,58.0,29.88,WSW,240,4.0,-999.0,84,-99.99,,,-99.99,,2013-07-21 02:58:00,
2013-07-20 23:05:00,63.0,58.0,29.87,WSW,240,6.0,-999.0,84,-99.99,,,-99.99,,2013-07-21 03:05:00,
2013-07-20 23:15:00,63.0,58.0,29.87,WSW,240,6.0,-999.0,84,-99.99,,,-99.99,,2013-07-21 03:15:00,
2013-07-20 23:26:00,63.0,59.0,29.87,SW,232,7.0,-999.0,87,-99.99,,,-99.99,,2013-07-21 03:26:00,
2013-07-20 23:36:00,63.0,60.0,29.87,WSW,242,6.0,-999.0,90,-99.99,,,-99.99,,2013-07-21 03:36:00,
2013-07-20 23:46:00,63.0,60.0,29.87,WSW,242,6.0,-999.0,90,-99.99,,,-99.99,,2013-07-21 03:46:00,